sensor_id;sensor_type;location;lat;lon;timestamp;temperature;humidity
23729;DHT22;12045;60.214;24.724;2023-03-23T00:01:54;5.50;99.90
23729;DHT22;12045;60.214;24.724;2023-03-23T00:04:20;5.50;99.90
23729;DHT22;12045;60.214;24.724;2023-03-23T00:06:47;5.40;99.90
23729;DHT22;12045;60.214;24.724;2023-03-23T00:09:14;5.50;99.90
23729;DHT22;12045;60.214;24.724;2023-03-23T00:11:41;5.40;99.90
23729;DHT22;12045;60.214;24.724;2023-03-23T00:14:09;5.90;99.90
23729;DHT22;12045;60.214;24.724;2023-03-23T00:16:40;5.40;99.90
23729;DHT22;12045;60.214;24.724;2023-03-23T00:19:09;5.40;99.90
23729;DHT22;12045;60.214;24.724;2023-03-23T00:21:37;5.70;99.90
23729;DHT22;12045;60.214;24.724;2023-03-23T00:24:06;5.50;99.90
23729;DHT22;12045;60.214;24.724;2023-03-23T00:26:34;5.50;99.90
23729;DHT22;12045;60.214;24.724;2023-03-23T00:29:02;5.50;99.90
23729;DHT22;12045;60.214;24.724;2023-03-23T00:31:29;5.50;99.90
23729;DHT22;12045;60.214;24.724;2023-03-23T00:34:03;5.60;99.90
23729;DHT22;12045;60.214;24.724;2023-03-23T00:36:31;5.50;99.90
23729;DHT22;12045;60.214;24.724;2023-03-23T00:38:59;5.50;99.90
23729;DHT22;12045;60.214;24.724;2023-03-23T00:41:27;5.40;99.90
23729;DHT22;12045;60.214;24.724;2023-03-23T00:43:57;5.50;99.90
23729;DHT22;12045;60.214;24.724;2023-03-23T00:46:27;5.40;99.90
23729;DHT22;12045;60.214;24.724;2023-03-23T00:48:54;5.50;99.90
23729;DHT22;12045;60.214;24.724;2023-03-23T00:51:23;5.40;99.90
23729;DHT22;12045;60.214;24.724;2023-03-23T00:53:50;5.50;99.90
23729;DHT22;12045;60.214;24.724;2023-03-23T00:56:17;5.50;99.90
23729;DHT22;12045;60.214;24.724;2023-03-23T00:58:43;5.50;99.90
23729;DHT22;12045;60.214;24.724;2023-03-23T01:01:09;5.40;99.90
23729;DHT22;12045;60.214;24.724;2023-03-23T01:03:35;5.40;99.90
23729;DHT22;12045;60.214;24.724;2023-03-23T01:06:07;5.50;99.90
23729;DHT22;12045;60.214;24.724;2023-03-23T01:08:34;5.30;99.90
23729;DHT22;12045;60.214;24.724;2023-03-23T01:11:04;5.40;99.90
23729;DHT22;12045;60.214;24.724;2023-03-23T01:13:31;5.40;99.90
23729;DHT22;12045;60.214;24.724;2023-03-23T01:15:57;5.40;99.90
23729;DHT22;12045;60.214;24.724;2023-03-23T01:18:23;5.40;99.90
23729;DHT22;12045;60.214;24.724;2023-03-23T01:20:50;5.40;99.90
23729;DHT22;12045;60.214;24.724;2023-03-23T01:23:16;5.40;99.90
23729;DHT22;12045;60.214;24.724;2023-03-23T01:25:42;5.30;99.90
23729;DHT22;12045;60.214;24.724;2023-03-23T01:28:09;5.30;99.90
23729;DHT22;12045;60.214;24.724;2023-03-23T01:30:36;5.50;99.90
23729;DHT22;12045;60.214;24.724;2023-03-23T01:33:02;5.00;99.90
23729;DHT22;12045;60.214;24.724;2023-03-23T01:35:28;5.20;99.90
23729;DHT22;12045;60.214;24.724;2023-03-23T01:37:55;5.40;99.90
23729;DHT22;12045;60.214;24.724;2023-03-23T01:40:21;5.10;99.90
23729;DHT22;12045;60.214;24.724;2023-03-23T01:42:47;5.20;99.90
23729;DHT22;12045;60.214;24.724;2023-03-23T01:50:46;5.00;99.90
23729;DHT22;12045;60.214;24.724;2023-03-23T01:53:14;5.10;99.90
23729;DHT22;12045;60.214;24.724;2023-03-23T01:55:43;5.00;99.90
23729;DHT22;12045;60.214;24.724;2023-03-23T01:58:10;5.10;99.90
23729;DHT22;12045;60.214;24.724;2023-03-23T02:00:38;5.10;99.90
23729;DHT22;12045;60.214;24.724;2023-03-23T02:03:06;5.10;99.90
23729;DHT22;12045;60.214;24.724;2023-03-23T02:05:38;5.10;99.90
23729;DHT22;12045;60.214;24.724;2023-03-23T02:08:05;5.20;99.90
23729;DHT22;12045;60.214;24.724;2023-03-23T02:10:34;5.00;99.90
23729;DHT22;12045;60.214;24.724;2023-03-23T02:13:03;5.30;99.90
23729;DHT22;12045;60.214;24.724;2023-03-23T02:18:35;5.10;99.90
23729;DHT22;12045;60.214;24.724;2023-03-23T02:21:36;5.10;99.90
23729;DHT22;12045;60.214;24.724;2023-03-23T02:27:02;5.10;99.90
23729;DHT22;12045;60.214;24.724;2023-03-23T02:29:45;5.20;99.90
23729;DHT22;12045;60.214;24.724;2023-03-23T02:35:16;5.30;99.90
23729;DHT22;12045;60.214;24.724;2023-03-23T02:37:51;5.30;99.90
23729;DHT22;12045;60.214;24.724;2023-03-23T02:40:21;5.30;99.90
23729;DHT22;12045;60.214;24.724;2023-03-23T02:42:53;5.30;99.90
23729;DHT22;12045;60.214;24.724;2023-03-23T02:45:21;5.30;99.90
23729;DHT22;12045;60.214;24.724;2023-03-23T02:47:51;5.40;99.90
23729;DHT22;12045;60.214;24.724;2023-03-23T02:50:20;5.50;99.90
23729;DHT22;12045;60.214;24.724;2023-03-23T02:52:48;5.60;99.90
23729;DHT22;12045;60.214;24.724;2023-03-23T02:55:18;5.50;99.90
23729;DHT22;12045;60.214;24.724;2023-03-23T02:57:46;5.60;99.90
23729;DHT22;12045;60.214;24.724;2023-03-23T03:00:14;5.50;99.90
23729;DHT22;12045;60.214;24.724;2023-03-23T03:02:44;5.70;99.90
23729;DHT22;12045;60.214;24.724;2023-03-23T03:08:15;5.60;99.90
23729;DHT22;12045;60.214;24.724;2023-03-23T03:11:10;5.70;99.90
23729;DHT22;12045;60.214;24.724;2023-03-23T03:16:45;6.00;99.90
23729;DHT22;12045;60.214;24.724;2023-03-23T03:21:46;5.80;99.90
23729;DHT22;12045;60.214;24.724;2023-03-23T03:24:16;5.80;99.90
23729;DHT22;12045;60.214;24.724;2023-03-23T03:26:46;5.80;99.90
23729;DHT22;12045;60.214;24.724;2023-03-23T03:29:18;5.80;99.90
23729;DHT22;12045;60.214;24.724;2023-03-23T03:31:47;5.80;99.90
23729;DHT22;12045;60.214;24.724;2023-03-23T03:34:15;5.80;99.90
23729;DHT22;12045;60.214;24.724;2023-03-23T03:36:47;5.70;99.90
23729;DHT22;12045;60.214;24.724;2023-03-23T03:39:14;5.80;99.90
23729;DHT22;12045;60.214;24.724;2023-03-23T03:41:43;5.80;99.90
23729;DHT22;12045;60.214;24.724;2023-03-23T03:44:10;5.90;99.90
23729;DHT22;12045;60.214;24.724;2023-03-23T03:46:36;5.90;99.90
23729;DHT22;12045;60.214;24.724;2023-03-23T03:49:07;6.20;99.90
23729;DHT22;12045;60.214;24.724;2023-03-23T03:51:34;5.80;99.90
23729;DHT22;12045;60.214;24.724;2023-03-23T03:54:01;5.80;99.90
23729;DHT22;12045;60.214;24.724;2023-03-23T03:56:27;5.80;99.90
23729;DHT22;12045;60.214;24.724;2023-03-23T03:58:55;5.70;99.90
23729;DHT22;12045;60.214;24.724;2023-03-23T04:01:22;5.70;99.90
23729;DHT22;12045;60.214;24.724;2023-03-23T04:03:49;5.70;99.90
23729;DHT22;12045;60.214;24.724;2023-03-23T04:06:17;5.60;99.90
23729;DHT22;12045;60.214;24.724;2023-03-23T04:08:43;5.60;99.90
23729;DHT22;12045;60.214;24.724;2023-03-23T04:11:12;5.60;99.90
23729;DHT22;12045;60.214;24.724;2023-03-23T04:13:40;5.50;99.90
23729;DHT22;12045;60.214;24.724;2023-03-23T04:16:06;5.60;99.90
23729;DHT22;12045;60.214;24.724;2023-03-23T04:18:33;5.50;99.90
23729;DHT22;12045;60.214;24.724;2023-03-23T04:21:01;5.60;99.90
23729;DHT22;12045;60.214;24.724;2023-03-23T04:23:29;5.50;99.90
23729;DHT22;12045;60.214;24.724;2023-03-23T04:25:57;5.50;99.90
23729;DHT22;12045;60.214;24.724;2023-03-23T04:28:24;5.40;99.90
23729;DHT22;12045;60.214;24.724;2023-03-23T04:30:52;5.40;99.90
23729;DHT22;12045;60.214;24.724;2023-03-23T04:33:26;5.40;99.90
23729;DHT22;12045;60.214;24.724;2023-03-23T04:35:54;5.40;99.90
23729;DHT22;12045;60.214;24.724;2023-03-23T04:38:22;5.50;99.90
23729;DHT22;12045;60.214;24.724;2023-03-23T04:40:51;5.40;99.90
23729;DHT22;12045;60.214;24.724;2023-03-23T04:43:19;5.40;99.90
23729;DHT22;12045;60.214;24.724;2023-03-23T04:45:52;5.50;99.90
23729;DHT22;12045;60.214;24.724;2023-03-23T04:48:23;5.30;99.90
23729;DHT22;12045;60.214;24.724;2023-03-23T04:50:50;5.40;99.90
23729;DHT22;12045;60.214;24.724;2023-03-23T04:53:17;5.50;99.90
23729;DHT22;12045;60.214;24.724;2023-03-23T04:55:44;5.40;99.90
23729;DHT22;12045;60.214;24.724;2023-03-23T04:58:11;5.10;99.90
23729;DHT22;12045;60.214;24.724;2023-03-23T05:00:41;5.20;99.90
23729;DHT22;12045;60.214;24.724;2023-03-23T05:03:12;5.20;99.90
23729;DHT22;12045;60.214;24.724;2023-03-23T05:05:43;5.20;99.90
23729;DHT22;12045;60.214;24.724;2023-03-23T05:08:15;5.20;99.90
23729;DHT22;12045;60.214;24.724;2023-03-23T05:10:52;5.30;99.90
23729;DHT22;12045;60.214;24.724;2023-03-23T05:13:19;5.10;99.90
23729;DHT22;12045;60.214;24.724;2023-03-23T05:15:45;5.10;99.90
23729;DHT22;12045;60.214;24.724;2023-03-23T05:18:11;5.30;99.90
23729;DHT22;12045;60.214;24.724;2023-03-23T05:20:38;5.10;99.90
23729;DHT22;12045;60.214;24.724;2023-03-23T05:23:05;5.20;99.90
23729;DHT22;12045;60.214;24.724;2023-03-23T05:25:31;5.20;99.90
23729;DHT22;12045;60.214;24.724;2023-03-23T05:28:03;5.00;99.90
23729;DHT22;12045;60.214;24.724;2023-03-23T05:30:29;4.90;99.90
23729;DHT22;12045;60.214;24.724;2023-03-23T05:32:55;5.00;99.90
23729;DHT22;12045;60.214;24.724;2023-03-23T05:35:21;5.30;99.90
23729;DHT22;12045;60.214;24.724;2023-03-23T05:37:48;5.40;99.90
23729;DHT22;12045;60.214;24.724;2023-03-23T05:40:14;4.80;99.90
23729;DHT22;12045;60.214;24.724;2023-03-23T05:42:41;4.80;99.90
23729;DHT22;12045;60.214;24.724;2023-03-23T05:45:08;4.80;99.90
23729;DHT22;12045;60.214;24.724;2023-03-23T05:47:37;4.80;99.90
23729;DHT22;12045;60.214;24.724;2023-03-23T05:50:05;4.80;99.90
23729;DHT22;12045;60.214;24.724;2023-03-23T05:52:33;4.90;99.90
23729;DHT22;12045;60.214;24.724;2023-03-23T05:55:01;4.80;99.90
23729;DHT22;12045;60.214;24.724;2023-03-23T05:57:30;4.80;99.90
23729;DHT22;12045;60.214;24.724;2023-03-23T05:59:56;4.70;99.90
23729;DHT22;12045;60.214;24.724;2023-03-23T06:02:24;4.80;99.90
23729;DHT22;12045;60.214;24.724;2023-03-23T06:05:09;4.90;99.90
23729;DHT22;12045;60.214;24.724;2023-03-23T06:07:40;4.90;99.90
23729;DHT22;12045;60.214;24.724;2023-03-23T06:10:07;5.00;99.90
23729;DHT22;12045;60.214;24.724;2023-03-23T06:12:36;4.90;99.90
23729;DHT22;12045;60.214;24.724;2023-03-23T06:15:04;5.20;99.90
23729;DHT22;12045;60.214;24.724;2023-03-23T06:17:34;4.90;99.90
23729;DHT22;12045;60.214;24.724;2023-03-23T06:20:06;4.80;99.90
23729;DHT22;12045;60.214;24.724;2023-03-23T06:22:37;4.90;99.90
23729;DHT22;12045;60.214;24.724;2023-03-23T06:25:05;5.10;99.90
23729;DHT22;12045;60.214;24.724;2023-03-23T06:27:32;5.20;99.90
23729;DHT22;12045;60.214;24.724;2023-03-23T06:29:59;5.00;99.90
23729;DHT22;12045;60.214;24.724;2023-03-23T06:32:27;4.90;99.90
23729;DHT22;12045;60.214;24.724;2023-03-23T06:34:55;4.80;99.90
23729;DHT22;12045;60.214;24.724;2023-03-23T06:37:25;5.00;99.90
23729;DHT22;12045;60.214;24.724;2023-03-23T06:39:51;4.80;99.90
23729;DHT22;12045;60.214;24.724;2023-03-23T06:42:18;5.40;99.90
23729;DHT22;12045;60.214;24.724;2023-03-23T06:44:44;4.90;99.90
23729;DHT22;12045;60.214;24.724;2023-03-23T06:47:12;4.90;99.90
23729;DHT22;12045;60.214;24.724;2023-03-23T06:49:38;5.40;99.90
23729;DHT22;12045;60.214;24.724;2023-03-23T06:52:05;4.90;99.90
23729;DHT22;12045;60.214;24.724;2023-03-23T06:54:32;5.80;99.90
23729;DHT22;12045;60.214;24.724;2023-03-23T06:56:58;5.00;99.90
23729;DHT22;12045;60.214;24.724;2023-03-23T06:59:24;5.30;99.90
23729;DHT22;12045;60.214;24.724;2023-03-23T07:01:51;5.00;99.90
23729;DHT22;12045;60.214;24.724;2023-03-23T07:04:17;5.00;99.90
23729;DHT22;12045;60.214;24.724;2023-03-23T07:06:44;5.10;99.90
23729;DHT22;12045;60.214;24.724;2023-03-23T07:09:11;5.20;99.90
23729;DHT22;12045;60.214;24.724;2023-03-23T07:11:38;5.20;99.90
23729;DHT22;12045;60.214;24.724;2023-03-23T07:14:04;5.10;99.90
23729;DHT22;12045;60.214;24.724;2023-03-23T07:16:30;5.40;99.90
23729;DHT22;12045;60.214;24.724;2023-03-23T07:18:59;5.10;99.90
23729;DHT22;12045;60.214;24.724;2023-03-23T07:21:26;7.50;99.90
23729;DHT22;12045;60.214;24.724;2023-03-23T07:23:53;5.10;99.90
23729;DHT22;12045;60.214;24.724;2023-03-23T07:26:19;5.20;99.90
23729;DHT22;12045;60.214;24.724;2023-03-23T07:28:46;5.20;99.90
23729;DHT22;12045;60.214;24.724;2023-03-23T07:31:14;5.40;99.90
23729;DHT22;12045;60.214;24.724;2023-03-23T07:33:48;5.10;99.90
23729;DHT22;12045;60.214;24.724;2023-03-23T07:36:14;5.20;99.90
23729;DHT22;12045;60.214;24.724;2023-03-23T07:38:42;5.20;99.90
23729;DHT22;12045;60.214;24.724;2023-03-23T07:41:12;5.30;99.90
23729;DHT22;12045;60.214;24.724;2023-03-23T07:43:38;5.30;99.90
23729;DHT22;12045;60.214;24.724;2023-03-23T07:46:06;5.40;99.90
23729;DHT22;12045;60.214;24.724;2023-03-23T07:48:37;6.00;99.90
23729;DHT22;12045;60.214;24.724;2023-03-23T07:51:09;5.50;99.90
23729;DHT22;12045;60.214;24.724;2023-03-23T07:53:39;5.70;99.90
23729;DHT22;12045;60.214;24.724;2023-03-23T07:56:06;5.70;99.90
23729;DHT22;12045;60.214;24.724;2023-03-23T07:58:33;4.40;99.90
23729;DHT22;12045;60.214;24.724;2023-03-23T08:00:59;5.80;99.90
23729;DHT22;12045;60.214;24.724;2023-03-23T08:03:27;5.60;99.90
23729;DHT22;12045;60.214;24.724;2023-03-23T08:06:31;6.00;99.90
23729;DHT22;12045;60.214;24.724;2023-03-23T08:09:13;6.20;99.90
23729;DHT22;12045;60.214;24.724;2023-03-23T08:11:45;5.90;99.90
23729;DHT22;12045;60.214;24.724;2023-03-23T08:14:15;6.10;99.90
23729;DHT22;12045;60.214;24.724;2023-03-23T08:16:43;6.00;99.90
23729;DHT22;12045;60.214;24.724;2023-03-23T08:19:10;6.10;99.90
23729;DHT22;12045;60.214;24.724;2023-03-23T08:21:40;6.40;99.90
23729;DHT22;12045;60.214;24.724;2023-03-23T08:24:07;6.40;99.90
23729;DHT22;12045;60.214;24.724;2023-03-23T08:26:33;6.10;99.90
23729;DHT22;12045;60.214;24.724;2023-03-23T08:29:04;6.10;99.90
23729;DHT22;12045;60.214;24.724;2023-03-23T08:31:30;6.40;99.90
23729;DHT22;12045;60.214;24.724;2023-03-23T08:33:59;6.60;99.90
23729;DHT22;12045;60.214;24.724;2023-03-23T08:36:27;6.50;99.90
23729;DHT22;12045;60.214;24.724;2023-03-23T08:39:13;6.50;99.90
23729;DHT22;12045;60.214;24.724;2023-03-23T08:41:44;6.20;99.90
23729;DHT22;12045;60.214;24.724;2023-03-23T08:44:11;6.30;99.90
23729;DHT22;12045;60.214;24.724;2023-03-23T08:46:40;6.40;99.90
23729;DHT22;12045;60.214;24.724;2023-03-23T08:49:07;6.70;99.90
23729;DHT22;12045;60.214;24.724;2023-03-23T08:51:35;6.40;99.90
23729;DHT22;12045;60.214;24.724;2023-03-23T08:54:02;6.40;99.90
23729;DHT22;12045;60.214;24.724;2023-03-23T08:56:29;6.50;99.90
23729;DHT22;12045;60.214;24.724;2023-03-23T08:58:56;6.30;99.90
23729;DHT22;12045;60.214;24.724;2023-03-23T09:01:25;6.80;99.90
23729;DHT22;12045;60.214;24.724;2023-03-23T09:03:52;6.40;99.90
23729;DHT22;12045;60.214;24.724;2023-03-23T09:09:27;6.90;99.90
23729;DHT22;12045;60.214;24.724;2023-03-23T09:11:53;6.70;99.90
23729;DHT22;12045;60.214;24.724;2023-03-23T09:14:20;6.50;99.90
23729;DHT22;12045;60.214;24.724;2023-03-23T09:16:59;6.60;99.90
23729;DHT22;12045;60.214;24.724;2023-03-23T09:23:51;7.40;99.90
23729;DHT22;12045;60.214;24.724;2023-03-23T09:31:02;8.80;99.90
23729;DHT22;12045;60.214;24.724;2023-03-23T09:34:01;7.20;99.90
23729;DHT22;12045;60.214;24.724;2023-03-23T09:40:19;7.00;99.90
23729;DHT22;12045;60.214;24.724;2023-03-23T09:50:28;7.40;99.90
23729;DHT22;12045;60.214;24.724;2023-03-23T09:56:30;6.80;99.90
23729;DHT22;12045;60.214;24.724;2023-03-23T10:02:59;8.10;99.90
23729;DHT22;12045;60.214;24.724;2023-03-23T10:05:32;7.60;99.90
23729;DHT22;12045;60.214;24.724;2023-03-23T10:08:10;7.70;99.90
23729;DHT22;12045;60.214;24.724;2023-03-23T10:17:14;7.70;99.90
23729;DHT22;12045;60.214;24.724;2023-03-23T10:20:02;6.50;99.90
23729;DHT22;12045;60.214;24.724;2023-03-23T10:22:58;7.60;99.90
23729;DHT22;12045;60.214;24.724;2023-03-23T10:25:34;8.10;99.90
23729;DHT22;12045;60.214;24.724;2023-03-23T10:28:13;8.50;99.90
23729;DHT22;12045;60.214;24.724;2023-03-23T10:30:42;8.70;99.90
23729;DHT22;12045;60.214;24.724;2023-03-23T10:33:16;9.80;99.90
23729;DHT22;12045;60.214;24.724;2023-03-23T10:39:57;9.70;99.90
23729;DHT22;12045;60.214;24.724;2023-03-23T11:04:45;9.00;99.90
23729;DHT22;12045;60.214;24.724;2023-03-23T11:07:31;4.90;99.90
23729;DHT22;12045;60.214;24.724;2023-03-23T11:10:15;8.10;99.90
23729;DHT22;12045;60.214;24.724;2023-03-23T11:12:46;8.20;99.90
23729;DHT22;12045;60.214;24.724;2023-03-23T11:19:35;8.20;99.90
23729;DHT22;12045;60.214;24.724;2023-03-23T11:26:13;7.10;99.90
23729;DHT22;12045;60.214;24.724;2023-03-23T11:31:34;7.60;99.90
23729;DHT22;12045;60.214;24.724;2023-03-23T11:34:48;7.70;99.90
23729;DHT22;12045;60.214;24.724;2023-03-23T11:47:10;9.90;99.90
23729;DHT22;12045;60.214;24.724;2023-03-23T11:52:47;9.00;99.90
23729;DHT22;12045;60.214;24.724;2023-03-23T11:55:52;8.60;99.90
23729;DHT22;12045;60.214;24.724;2023-03-23T11:58:21;8.20;99.90
23729;DHT22;12045;60.214;24.724;2023-03-23T12:09:48;9.50;99.90
23729;DHT22;12045;60.214;24.724;2023-03-23T12:15:51;10.00;99.90
23729;DHT22;12045;60.214;24.724;2023-03-23T12:21:27;9.00;99.90
23729;DHT22;12045;60.214;24.724;2023-03-23T12:24:52;8.90;99.90
23729;DHT22;12045;60.214;24.724;2023-03-23T12:38:35;8.70;99.90
23729;DHT22;12045;60.214;24.724;2023-03-23T12:44:11;8.60;99.90
23729;DHT22;12045;60.214;24.724;2023-03-23T12:49:46;8.40;99.90
23729;DHT22;12045;60.214;24.724;2023-03-23T12:52:35;8.20;99.90
23729;DHT22;12045;60.214;24.724;2023-03-23T12:55:14;8.20;99.90
23729;DHT22;12045;60.214;24.724;2023-03-23T13:03:19;8.50;99.90
23729;DHT22;12045;60.214;24.724;2023-03-23T13:06:02;8.30;99.90
23729;DHT22;12045;60.214;24.724;2023-03-23T13:11:22;8.30;99.90
23729;DHT22;12045;60.214;24.724;2023-03-23T13:13:53;8.40;99.90
23729;DHT22;12045;60.214;24.724;2023-03-23T13:22:07;8.70;99.90
23729;DHT22;12045;60.214;24.724;2023-03-23T13:24:39;8.80;99.90
23729;DHT22;12045;60.214;24.724;2023-03-23T13:27:09;8.50;99.90
23729;DHT22;12045;60.214;24.724;2023-03-23T13:29:44;8.70;99.90
23729;DHT22;12045;60.214;24.724;2023-03-23T13:32:16;8.70;99.90
23729;DHT22;12045;60.214;24.724;2023-03-23T13:34:42;8.90;99.90
23729;DHT22;12045;60.214;24.724;2023-03-23T13:37:21;8.70;99.90
23729;DHT22;12045;60.214;24.724;2023-03-23T13:42:55;8.90;99.90
23729;DHT22;12045;60.214;24.724;2023-03-23T13:48:16;8.90;99.90
23729;DHT22;12045;60.214;24.724;2023-03-23T13:50:59;9.00;99.90
23729;DHT22;12045;60.214;24.724;2023-03-23T13:53:31;9.10;99.90
23729;DHT22;12045;60.214;24.724;2023-03-23T13:59:27;9.10;99.90
23729;DHT22;12045;60.214;24.724;2023-03-23T14:01:54;9.10;99.90
23729;DHT22;12045;60.214;24.724;2023-03-23T14:04:23;9.00;99.90
23729;DHT22;12045;60.214;24.724;2023-03-23T14:06:50;8.90;99.90
23729;DHT22;12045;60.214;24.724;2023-03-23T14:09:27;8.80;99.90
23729;DHT22;12045;60.214;24.724;2023-03-23T14:12:02;8.90;99.90
23729;DHT22;12045;60.214;24.724;2023-03-23T14:14:41;8.90;99.90
23729;DHT22;12045;60.214;24.724;2023-03-23T14:17:17;8.80;99.90
23729;DHT22;12045;60.214;24.724;2023-03-23T14:19:50;8.80;99.90
23729;DHT22;12045;60.214;24.724;2023-03-23T14:22:35;8.90;99.90
23729;DHT22;12045;60.214;24.724;2023-03-23T14:25:12;8.90;99.90
23729;DHT22;12045;60.214;24.724;2023-03-23T14:27:39;8.90;99.90
23729;DHT22;12045;60.214;24.724;2023-03-23T14:30:13;8.90;99.90
23729;DHT22;12045;60.214;24.724;2023-03-23T14:32:40;8.80;99.90
23729;DHT22;12045;60.214;24.724;2023-03-23T14:35:30;8.80;99.90
23729;DHT22;12045;60.214;24.724;2023-03-23T14:37:57;8.80;99.90
23729;DHT22;12045;60.214;24.724;2023-03-23T14:40:26;9.40;99.90
23729;DHT22;12045;60.214;24.724;2023-03-23T14:42:53;8.60;99.90
23729;DHT22;12045;60.214;24.724;2023-03-23T14:45:21;8.50;99.90
23729;DHT22;12045;60.214;24.724;2023-03-23T14:48:00;8.40;99.90
23729;DHT22;12045;60.214;24.724;2023-03-23T14:50:40;8.40;99.90
23729;DHT22;12045;60.214;24.724;2023-03-23T14:53:31;8.30;99.90
23729;DHT22;12045;60.214;24.724;2023-03-23T14:56:03;8.30;99.90
23729;DHT22;12045;60.214;24.724;2023-03-23T14:58:30;8.30;99.90
23729;DHT22;12045;60.214;24.724;2023-03-23T15:01:05;8.20;99.90
23729;DHT22;12045;60.214;24.724;2023-03-23T15:03:40;8.20;99.90
23729;DHT22;12045;60.214;24.724;2023-03-23T15:06:16;8.20;99.90
23729;DHT22;12045;60.214;24.724;2023-03-23T15:08:44;8.20;99.90
23729;DHT22;12045;60.214;24.724;2023-03-23T15:13:45;8.00;99.90
23729;DHT22;12045;60.214;24.724;2023-03-23T15:16:18;7.90;99.90
23729;DHT22;12045;60.214;24.724;2023-03-23T15:19:12;7.90;99.90
23729;DHT22;12045;60.214;24.724;2023-03-23T15:21:48;7.90;99.90
23729;DHT22;12045;60.214;24.724;2023-03-23T15:24:37;7.90;99.90
23729;DHT22;12045;60.214;24.724;2023-03-23T15:27:16;7.90;99.90
23729;DHT22;12045;60.214;24.724;2023-03-23T15:29:59;7.80;99.90
23729;DHT22;12045;60.214;24.724;2023-03-23T15:32:29;7.60;99.90
23729;DHT22;12045;60.214;24.724;2023-03-23T15:34:57;7.70;99.90
23729;DHT22;12045;60.214;24.724;2023-03-23T15:37:29;7.60;99.90
23729;DHT22;12045;60.214;24.724;2023-03-23T15:39:59;7.60;99.90
23729;DHT22;12045;60.214;24.724;2023-03-23T15:42:30;7.50;99.90
23729;DHT22;12045;60.214;24.724;2023-03-23T15:45:25;7.50;99.90
23729;DHT22;12045;60.214;24.724;2023-03-23T15:47:52;7.60;99.90
23729;DHT22;12045;60.214;24.724;2023-03-23T15:50:33;7.40;99.90
23729;DHT22;12045;60.214;24.724;2023-03-23T15:53:19;7.40;99.90
23729;DHT22;12045;60.214;24.724;2023-03-23T15:55:46;7.40;99.90
23729;DHT22;12045;60.214;24.724;2023-03-23T15:58:13;7.30;99.90
23729;DHT22;12045;60.214;24.724;2023-03-23T16:00:42;8.00;99.90
23729;DHT22;12045;60.214;24.724;2023-03-23T16:03:22;7.30;99.90
23729;DHT22;12045;60.214;24.724;2023-03-23T16:05:57;7.20;99.90
23729;DHT22;12045;60.214;24.724;2023-03-23T16:08:55;7.10;99.90
23729;DHT22;12045;60.214;24.724;2023-03-23T16:11:26;7.20;99.90
23729;DHT22;12045;60.214;24.724;2023-03-23T16:13:54;7.10;99.90
23729;DHT22;12045;60.214;24.724;2023-03-23T16:16:22;7.10;99.90
23729;DHT22;12045;60.214;24.724;2023-03-23T16:18:51;7.00;99.90
23729;DHT22;12045;60.214;24.724;2023-03-23T16:21:19;6.90;99.90
23729;DHT22;12045;60.214;24.724;2023-03-23T16:23:46;7.20;99.90
23729;DHT22;12045;60.214;24.724;2023-03-23T16:26:14;6.70;99.90
23729;DHT22;12045;60.214;24.724;2023-03-23T16:28:42;6.60;99.90
23729;DHT22;12045;60.214;24.724;2023-03-23T16:31:10;6.50;99.90
23729;DHT22;12045;60.214;24.724;2023-03-23T16:33:37;7.20;99.90
23729;DHT22;12045;60.214;24.724;2023-03-23T16:36:06;5.80;99.90
23729;DHT22;12045;60.214;24.724;2023-03-23T16:38:33;6.20;99.90
23729;DHT22;12045;60.214;24.724;2023-03-23T16:41:16;6.10;99.90
23729;DHT22;12045;60.214;24.724;2023-03-23T16:43:43;6.00;99.90
23729;DHT22;12045;60.214;24.724;2023-03-23T16:46:11;5.80;99.90
23729;DHT22;12045;60.214;24.724;2023-03-23T16:48:40;5.70;99.90
23729;DHT22;12045;60.214;24.724;2023-03-23T16:51:08;5.80;99.90
23729;DHT22;12045;60.214;24.724;2023-03-23T16:53:35;5.60;99.90
23729;DHT22;12045;60.214;24.724;2023-03-23T16:56:04;5.70;99.90
23729;DHT22;12045;60.214;24.724;2023-03-23T16:58:31;5.30;99.90
23729;DHT22;12045;60.214;24.724;2023-03-23T17:01:00;5.50;99.90
23729;DHT22;12045;60.214;24.724;2023-03-23T17:03:27;5.30;99.90
23729;DHT22;12045;60.214;24.724;2023-03-23T17:05:55;5.30;99.90
23729;DHT22;12045;60.214;24.724;2023-03-23T17:08:25;5.40;99.90
23729;DHT22;12045;60.214;24.724;2023-03-23T17:10:53;5.30;99.90
23729;DHT22;12045;60.214;24.724;2023-03-23T17:13:21;5.40;99.90
23729;DHT22;12045;60.214;24.724;2023-03-23T17:15:51;5.20;99.90
23729;DHT22;12045;60.214;24.724;2023-03-23T17:18:20;5.20;99.90
23729;DHT22;12045;60.214;24.724;2023-03-23T17:20:49;5.20;99.90
23729;DHT22;12045;60.214;24.724;2023-03-23T17:23:16;5.20;99.90
23729;DHT22;12045;60.214;24.724;2023-03-23T17:25:46;5.30;99.90
23729;DHT22;12045;60.214;24.724;2023-03-23T17:28:14;5.20;99.90
23729;DHT22;12045;60.214;24.724;2023-03-23T17:30:42;5.30;99.90
23729;DHT22;12045;60.214;24.724;2023-03-23T17:33:11;5.20;99.90
23729;DHT22;12045;60.214;24.724;2023-03-23T17:35:39;5.70;99.90
23729;DHT22;12045;60.214;24.724;2023-03-23T17:38:06;5.50;99.90
23729;DHT22;12045;60.214;24.724;2023-03-23T17:40:34;5.10;99.90
23729;DHT22;12045;60.214;24.724;2023-03-23T17:43:01;5.30;99.90
23729;DHT22;12045;60.214;24.724;2023-03-23T17:45:28;5.50;99.90
23729;DHT22;12045;60.214;24.724;2023-03-23T17:47:56;5.00;99.90
23729;DHT22;12045;60.214;24.724;2023-03-23T17:50:24;4.90;99.90
23729;DHT22;12045;60.214;24.724;2023-03-23T17:52:52;5.60;99.90
23729;DHT22;12045;60.214;24.724;2023-03-23T17:55:20;5.70;99.90
23729;DHT22;12045;60.214;24.724;2023-03-23T17:57:47;4.90;99.90
23729;DHT22;12045;60.214;24.724;2023-03-23T18:00:15;5.20;99.90
23729;DHT22;12045;60.214;24.724;2023-03-23T18:02:43;5.80;99.90
23729;DHT22;12045;60.214;24.724;2023-03-23T18:05:11;4.90;99.90
23729;DHT22;12045;60.214;24.724;2023-03-23T18:07:38;4.80;99.90
23729;DHT22;12045;60.214;24.724;2023-03-23T18:10:06;4.80;99.90
23729;DHT22;12045;60.214;24.724;2023-03-23T18:12:43;4.70;99.90
23729;DHT22;12045;60.214;24.724;2023-03-23T18:15:10;4.60;99.90
23729;DHT22;12045;60.214;24.724;2023-03-23T18:17:38;4.60;99.90
23729;DHT22;12045;60.214;24.724;2023-03-23T18:20:07;5.00;99.90
23729;DHT22;12045;60.214;24.724;2023-03-23T18:22:37;4.50;99.90
23729;DHT22;12045;60.214;24.724;2023-03-23T18:25:05;4.60;99.90
23729;DHT22;12045;60.214;24.724;2023-03-23T18:27:33;4.20;99.90
23729;DHT22;12045;60.214;24.724;2023-03-23T18:30:01;4.20;99.90
23729;DHT22;12045;60.214;24.724;2023-03-23T18:32:29;4.00;99.90
23729;DHT22;12045;60.214;24.724;2023-03-23T18:34:56;4.20;99.90
23729;DHT22;12045;60.214;24.724;2023-03-23T18:37:24;4.10;99.90
23729;DHT22;12045;60.214;24.724;2023-03-23T18:39:51;3.90;99.90
23729;DHT22;12045;60.214;24.724;2023-03-23T18:42:20;3.90;99.90